Time;durP1;ratioP1;P1;durP2;ratioP2;P2;SDS_P1;SDS_P2;PMS_P1;PMS_P2;Temp;Humidity;BMP_temperature;BMP_pressure;BME280_temperature;BME280_humidity;BME280_pressure;Samples;Min_cycle;Max_cycle;Signal;HPM_P1;HPM_P2
2023/10/07 00:03:22;;;;;;;0.00;0.00;;;17.60;99.90;;;;;;4958654;28;20408;-64
2023/10/07 00:05:50;;;;;;;0.28;0.28;;;17.70;99.90;;;;;;4998677;28;20406;-64
2023/10/07 00:08:22;;;;;;;5.18;0.73;;;17.60;99.90;;;;;;4998538;28;20058;-65
2023/10/07 00:10:49;;;;;;;5.70;1.30;;;17.60;99.90;;;;;;5005459;28;20049;-64
2023/10/07 00:13:19;;;;;;;2.17;1.55;;;17.60;99.90;;;;;;5001861;28;20061;-64
2023/10/07 00:15:47;;;;;;;0.08;0.08;;;17.60;99.90;;;;;;4999241;28;20103;-65
2023/10/07 00:18:14;;;;;;;0.00;0.00;;;17.60;99.90;;;;;;4999346;28;20136;-65
2023/10/07 00:20:57;;;;;;;9.48;2.47;;;17.60;99.90;;;;;;5004163;28;20044;-64
2023/10/07 00:23:28;;;;;;;;;;;17.60;99.90;;;;;;5008805;28;20045;-64
2023/10/07 00:25:54;;;;;;;0.38;0.38;;;17.60;99.90;;;;;;4999904;28;19922;-64
2023/10/07 00:30:56;;;;;;;0.10;0.10;;;17.50;99.90;;;;;;5002854;28;20116;-64
2023/10/07 00:33:22;;;;;;;2.92;0.80;;;17.50;99.90;;;;;;5005397;28;20131;-64
2023/10/07 00:35:55;;;;;;;0.00;0.00;;;17.50;99.90;;;;;;5001279;28;20085;-64
2023/10/07 00:38:24;;;;;;;0.00;0.00;;;17.50;99.90;;;;;;5003286;28;20046;-63
2023/10/07 00:40:54;;;;;;;1.30;1.20;;;17.50;99.90;;;;;;4998316;28;20096;-64
2023/10/07 00:43:27;;;;;;;12.82;0.75;;;17.60;99.90;;;;;;5000706;28;20050;-64
2023/10/07 00:46:11;;;;;;;0.00;0.00;;;17.60;99.90;;;;;;5004488;28;20493;-64
2023/10/07 00:48:52;;;;;;;0.00;0.00;;;17.60;99.90;;;;;;4998077;28;20157;-64
2023/10/07 00:51:24;;;;;;;0.10;0.10;;;17.50;99.90;;;;;;5002552;28;20121;-64
2023/10/07 00:54:00;;;;;;;1.45;0.93;;;17.60;99.90;;;;;;5009145;28;20203;-65
2023/10/07 00:56:33;;;;;;;0.47;0.47;;;17.60;99.90;;;;;;5007332;28;20440;-64
2023/10/07 00:59:07;;;;;;;0.00;0.00;;;17.60;99.90;;;;;;5003919;28;20046;-64
2023/10/07 01:01:36;;;;;;;0.15;0.15;;;17.60;99.90;;;;;;5003161;28;20045;-64
2023/10/07 01:04:06;;;;;;;0.35;0.35;;;17.60;99.90;;;;;;5005941;28;20627;-64
2023/10/07 01:06:32;;;;;;;0.00;0.00;;;17.60;99.90;;;;;;4994035;28;20061;-65
2023/10/07 01:09:22;;;;;;;1.63;1.10;;;17.60;99.90;;;;;;5001247;28;20538;-64
2023/10/07 01:11:47;;;;;;;8.38;1.27;;;17.50;99.90;;;;;;5005662;28;20057;-64
2023/10/07 01:14:12;;;;;;;0.10;0.10;;;17.60;99.90;;;;;;5001159;28;20070;-64
2023/10/07 01:16:45;;;;;;;0.25;0.25;;;17.60;99.90;;;;;;5003092;28;20069;-64
2023/10/07 01:21:58;;;;;;;1.00;0.73;;;17.60;99.90;;;;;;5006549;28;20054;-64
2023/10/07 01:29:59;;;;;;;0.00;0.00;;;17.50;99.90;;;;;;5003281;28;20069;-64
2023/10/07 01:32:32;;;;;;;0.10;0.10;;;17.60;99.90;;;;;;4998134;28;20053;-65
2023/10/07 01:35:00;;;;;;;0.67;0.67;;;17.50;99.90;;;;;;5005191;28;20038;-64
2023/10/07 01:37:31;;;;;;;1.50;1.40;;;17.60;99.90;;;;;;5002165;28;20408;-64
2023/10/07 01:39:57;;;;;;;1.40;1.08;;;17.60;99.90;;;;;;4995342;28;20042;-64
2023/10/07 01:42:36;;;;;;;0.28;0.17;;;17.50;99.90;;;;;;4996552;28;20496;-65
2023/10/07 01:45:11;;;;;;;2.20;1.20;;;17.60;99.90;;;;;;4996822;28;20042;-64
2023/10/07 01:47:38;;;;;;;0.10;0.10;;;17.60;99.90;;;;;;5007554;28;20065;-64
2023/10/07 01:50:12;;;;;;;0.30;0.30;;;17.60;99.90;;;;;;4994974;28;20201;-64
2023/10/07 01:52:38;;;;;;;0.00;0.00;;;17.60;99.90;;;;;;5009472;28;20034;-64
2023/10/07 01:55:08;;;;;;;0.15;0.15;;;17.60;99.90;;;;;;5005817;28;20088;-64
2023/10/07 01:57:34;;;;;;;0.50;0.50;;;17.60;99.90;;;;;;5003297;28;20287;-64
2023/10/07 02:00:07;;;;;;;0.03;0.03;;;17.60;99.90;;;;;;5005714;28;20464;-64
2023/10/07 02:02:42;;;;;;;0.00;0.00;;;17.60;99.90;;;;;;4994957;28;20521;-64
2023/10/07 02:05:11;;;;;;;0.20;0.20;;;17.60;99.90;;;;;;4998061;28;20072;-64
2023/10/07 02:07:37;;;;;;;6.85;0.68;;;17.60;99.90;;;;;;5001923;28;20054;-64
2023/10/07 02:10:03;;;;;;;0.05;0.05;;;17.60;99.90;;;;;;4995736;28;20053;-64
2023/10/07 02:12:32;;;;;;;0.00;0.00;;;17.60;99.90;;;;;;5001671;28;20382;-64
2023/10/07 02:15:03;;;;;;;0.40;0.40;;;17.60;99.90;;;;;;4999661;28;20512;-64
2023/10/07 02:17:29;;;;;;;0.10;0.10;;;17.60;99.90;;;;;;4993050;28;20058;-64
2023/10/07 02:19:57;;;;;;;0.00;0.00;;;17.60;99.90;;;;;;5009304;28;20061;-64
2023/10/07 02:22:28;;;;;;;0.22;0.22;;;17.60;99.90;;;;;;4998631;28;20038;-64
2023/10/07 02:25:03;;;;;;;0.25;0.25;;;17.60;99.90;;;;;;5002510;28;20042;-65
2023/10/07 02:27:37;;;;;;;0.32;0.32;;;17.60;99.90;;;;;;5003041;28;20112;-64
2023/10/07 02:30:04;;;;;;;3.83;0.35;;;17.60;99.90;;;;;;4998860;28;20058;-64
2023/10/07 02:32:32;;;;;;;0.03;0.03;;;17.60;99.90;;;;;;4999353;28;20047;-64
2023/10/07 02:34:59;;;;;;;3.15;0.77;;;17.60;99.90;;;;;;5021763;28;20045;-64
2023/10/07 02:37:29;;;;;;;1.30;0.50;;;17.70;99.90;;;;;;5000322;28;20045;-64
2023/10/07 02:39:56;;;;;;;0.00;0.00;;;17.60;99.90;;;;;;5000435;28;20116;-64
2023/10/07 02:42:28;;;;;;;0.00;0.00;;;17.70;99.90;;;;;;5003335;28;20549;-65
2023/10/07 02:45:19;;;;;;;1.88;0.43;;;17.60;99.90;;;;;;5005816;28;20050;-65
2023/10/07 02:48:00;;;;;;;4.85;1.55;;;17.70;99.90;;;;;;4999800;28;20050;-65
2023/10/07 02:50:26;;;;;;;0.55;0.47;;;17.60;99.90;;;;;;5003494;28;20064;-65
2023/10/07 02:52:53;;;;;;;0.10;0.10;;;17.60;99.90;;;;;;5002828;28;20487;-64
2023/10/07 02:57:45;;;;;;;1.35;0.30;;;17.60;99.90;;;;;;5005381;28;20060;-65
2023/10/07 03:00:16;;;;;;;0.30;0.30;;;17.60;99.90;;;;;;5002275;28;20050;-65
2023/10/07 03:02:49;;;;;;;0.00;0.00;;;17.60;99.90;;;;;;5004334;28;20049;-64
2023/10/07 03:05:20;;;;;;;0.15;0.15;;;17.60;99.90;;;;;;5001104;28;20042;-64
2023/10/07 03:08:01;;;;;;;1.35;0.68;;;17.70;99.90;;;;;;5001227;28;20054;-64
2023/10/07 03:10:43;;;;;;;0.75;0.75;;;17.60;99.90;;;;;;5004116;28;20132;-64
2023/10/07 03:13:08;;;;;;;0.00;0.00;;;17.60;99.90;;;;;;4998620;28;20394;-65
2023/10/07 03:18:00;;;;;;;0.93;0.90;;;17.60;99.90;;;;;;5000667;28;20064;-65
2023/10/07 03:20:30;;;;;;;0.10;0.10;;;17.60;99.90;;;;;;4997547;28;20041;-64
2023/10/07 03:23:25;;;;;;;0.90;0.90;;;17.60;99.90;;;;;;4999160;28;20042;-64
2023/10/07 03:28:30;;;;;;;1.27;1.17;;;17.60;99.90;;;;;;5006183;28;20066;-64
2023/10/07 03:30:56;;;;;;;1.20;0.57;;;17.60;99.90;;;;;;5001810;28;20053;-64
2023/10/07 03:33:32;;;;;;;0.25;0.25;;;17.60;99.90;;;;;;4995441;28;20407;-64
2023/10/07 03:36:07;;;;;;;0.00;0.00;;;17.60;99.90;;;;;;5004447;28;20125;-65
2023/10/07 03:38:35;;;;;;;0.43;0.43;;;17.60;99.90;;;;;;5003436;28;20057;-64
2023/10/07 03:41:00;;;;;;;0.00;0.00;;;17.60;99.90;;;;;;4999007;28;20054;-64
2023/10/07 03:43:26;;;;;;;0.38;0.38;;;17.60;99.90;;;;;;5004580;28;20042;-65
2023/10/07 03:45:55;;;;;;;0.20;0.20;;;17.50;99.90;;;;;;4996486;28;20050;-64
2023/10/07 03:48:24;;;;;;;0.75;0.25;;;17.60;99.90;;;;;;5002585;28;20623;-65
2023/10/07 03:51:04;;;;;;;0.10;0.10;;;17.60;99.90;;;;;;4997586;28;20046;-64
2023/10/07 03:53:32;;;;;;;0.00;0.00;;;17.50;99.90;;;;;;4997464;28;20073;-65
2023/10/07 03:56:00;;;;;;;0.03;0.03;;;17.60;99.90;;;;;;5006385;28;20450;-65
2023/10/07 03:58:27;;;;;;;1.50;0.95;;;17.60;99.90;;;;;;5008941;28;20513;-65
2023/10/07 04:00:54;;;;;;;4.30;0.65;;;17.50;99.90;;;;;;5003604;28;20494;-64
2023/10/07 04:03:23;;;;;;;1.05;0.95;;;17.50;99.90;;;;;;4999998;28;20100;-65
2023/10/07 04:05:50;;;;;;;0.45;0.45;;;17.50;99.90;;;;;;4998283;28;20642;-64
2023/10/07 04:08:18;;;;;;;0.00;0.00;;;17.50;99.90;;;;;;5001945;28;20498;-65
2023/10/07 04:10:47;;;;;;;0.20;0.20;;;17.50;99.90;;;;;;4997729;28;20052;-64
2023/10/07 04:13:21;;;;;;;0.15;0.15;;;17.50;99.90;;;;;;4998972;28;20054;-64
2023/10/07 04:15:53;;;;;;;0.10;0.10;;;17.50;99.90;;;;;;5005689;28;20038;-65
2023/10/07 04:18:34;;;;;;;10.57;1.25;;;17.50;99.90;;;;;;4997037;28;20056;-65
2023/10/07 04:21:01;;;;;;;0.22;0.22;;;17.50;99.90;;;;;;5006351;28;20042;-65
2023/10/07 04:23:27;;;;;;;0.73;0.73;;;17.50;99.90;;;;;;4995630;28;20042;-65
2023/10/07 04:26:03;;;;;;;0.22;0.22;;;17.50;99.90;;;;;;4998806;28;20038;-64
2023/10/07 04:28:29;;;;;;;0.03;0.03;;;17.50;99.90;;;;;;5001766;28;20130;-65
2023/10/07 04:30:55;;;;;;;0.00;0.00;;;17.50;99.90;;;;;;4998443;28;20089;-66
2023/10/07 04:33:26;;;;;;;0.00;0.00;;;17.50;99.90;;;;;;5003577;28;20070;-66
2023/10/07 04:36:01;;;;;;;0.10;0.10;;;17.50;99.90;;;;;;5006859;28;20148;-63
2023/10/07 04:43:50;;;;;;;0.77;0.17;;;17.50;99.90;;;;;;5008709;28;20045;-64
2023/10/07 04:46:23;;;;;;;0.00;0.00;;;17.50;99.90;;;;;;5007772;28;20137;-64
2023/10/07 04:49:12;;;;;;;;;;;17.50;99.90;;;;;;4997166;28;20411;-63
2023/10/07 04:54:06;;;;;;;0.00;0.00;;;17.50;99.90;;;;;;5005818;28;20482;-65
2023/10/07 04:56:33;;;;;;;3.30;0.45;;;17.40;99.90;;;;;;4994316;28;20039;-65
2023/10/07 04:59:09;;;;;;;8.90;1.70;;;17.40;99.90;;;;;;5004859;28;20049;-64
2023/10/07 05:01:35;;;;;;;0.05;0.05;;;17.50;99.90;;;;;;5001120;28;20050;-64
2023/10/07 05:04:09;;;;;;;0.47;0.47;;;17.40;99.90;;;;;;4998440;28;20049;-64
2023/10/07 05:06:37;;;;;;;0.00;0.00;;;17.40;99.90;;;;;;5006970;28;20057;-64
2023/10/07 05:09:09;;;;;;;0.20;0.20;;;17.40;99.90;;;;;;4999524;28;20049;-64
2023/10/07 05:11:43;;;;;;;0.08;0.08;;;17.40;99.90;;;;;;4996958;28;20133;-64
2023/10/07 05:14:10;;;;;;;0.10;0.10;;;17.30;99.90;;;;;;5000752;28;20053;-64
2023/10/07 05:16:36;;;;;;;0.05;0.05;;;17.40;99.90;;;;;;4999138;28;20100;-64
2023/10/07 05:19:03;;;;;;;0.13;0.13;;;17.40;99.90;;;;;;5001397;28;20050;-64
2023/10/07 05:21:31;;;;;;;0.00;0.00;;;17.40;99.90;;;;;;5000474;28;20064;-64
2023/10/07 05:24:02;;;;;;;0.00;0.00;;;17.40;99.90;;;;;;4998630;28;20042;-64
2023/10/07 05:26:30;;;;;;;0.00;0.00;;;17.40;99.90;;;;;;5000189;28;20073;-64
2023/10/07 05:29:01;;;;;;;2.15;0.95;;;17.40;99.90;;;;;;4994385;28;20073;-65
2023/10/07 05:31:30;;;;;;;0.80;0.80;;;17.40;99.90;;;;;;5003850;28;20045;-64
2023/10/07 05:33:59;;;;;;;0.63;0.63;;;17.40;99.90;;;;;;5001519;28;20045;-65
2023/10/07 05:36:30;;;;;;;4.18;2.08;;;17.40;99.90;;;;;;5001337;28;20054;-65
2023/10/07 05:38:56;;;;;;;0.55;0.55;;;17.40;99.90;;;;;;5006949;28;20046;-65
2023/10/07 05:41:25;;;;;;;0.63;0.55;;;17.40;99.90;;;;;;5006664;28;20045;-64
2023/10/07 05:43:51;;;;;;;1.00;0.45;;;17.40;99.90;;;;;;5001018;28;20056;-64
2023/10/07 05:46:19;;;;;;;4.55;1.80;;;17.40;99.90;;;;;;5000646;28;20049;-64
2023/10/07 05:48:45;;;;;;;8.68;1.00;;;17.40;99.90;;;;;;4996772;28;20046;-64
2023/10/07 05:51:11;;;;;;;0.20;0.20;;;17.40;99.90;;;;;;5002312;28;20473;-64
2023/10/07 05:53:42;;;;;;;0.28;0.28;;;17.40;99.90;;;;;;5006814;28;20046;-64
2023/10/07 05:56:09;;;;;;;0.20;0.20;;;17.40;99.90;;;;;;5005475;28;20474;-65
2023/10/07 05:58:38;;;;;;;3.10;0.43;;;17.40;99.90;;;;;;4999788;28;20046;-64
2023/10/07 06:01:05;;;;;;;0.00;0.00;;;17.40;99.90;;;;;;5003572;28;20498;-64
2023/10/07 06:03:31;;;;;;;0.00;0.00;;;17.40;99.90;;;;;;5001375;28;20069;-65
2023/10/07 06:05:57;;;;;;;0.22;0.22;;;17.40;99.90;;;;;;5002890;28;20532;-64
2023/10/07 06:08:29;;;;;;;0.25;0.25;;;17.40;99.90;;;;;;5000600;28;20038;-64
2023/10/07 06:10:56;;;;;;;0.10;0.10;;;17.30;99.90;;;;;;5005380;28;20042;-64
2023/10/07 06:13:23;;;;;;;0.43;0.35;;;17.40;99.90;;;;;;5004005;28;20773;-64
2023/10/07 06:15:50;;;;;;;1.23;0.32;;;17.40;99.90;;;;;;5009309;28;20045;-65
2023/10/07 06:18:18;;;;;;;0.08;0.08;;;17.30;99.90;;;;;;5000376;28;20402;-65
2023/10/07 06:20:48;;;;;;;0.10;0.10;;;17.30;99.90;;;;;;5002887;28;20054;-64
2023/10/07 06:23:14;;;;;;;3.53;1.25;;;17.30;99.90;;;;;;5004145;28;20064;-64
2023/10/07 06:25:49;;;;;;;0.43;0.43;;;17.30;99.90;;;;;;4998976;28;20050;-64
2023/10/07 06:31:10;;;;;;;1.00;1.00;;;17.30;99.90;;;;;;5003506;28;20054;-64
2023/10/07 06:33:41;;;;;;;0.10;0.10;;;17.30;99.90;;;;;;5005026;28;20038;-65
2023/10/07 06:36:12;;;;;;;0.30;0.30;;;17.30;99.90;;;;;;4998993;28;20034;-65
2023/10/07 06:38:52;;;;;;;1.83;1.67;;;17.30;99.90;;;;;;5008415;28;20044;-65
2023/10/07 06:41:18;;;;;;;4.90;0.57;;;17.30;99.90;;;;;;5005221;28;20046;-64
2023/10/07 06:43:50;;;;;;;0.88;0.88;;;17.30;99.90;;;;;;4991375;28;20043;-64
2023/10/07 06:46:20;;;;;;;0.47;0.47;;;17.30;99.90;;;;;;5000047;28;20131;-65
2023/10/07 06:48:49;;;;;;;0.10;0.10;;;17.30;99.90;;;;;;4999299;28;20045;-65
2023/10/07 06:51:16;;;;;;;0.38;0.38;;;17.40;99.90;;;;;;4995610;28;20062;-65
2023/10/07 06:53:45;;;;;;;0.20;0.20;;;17.40;99.90;;;;;;4995465;28;20042;-65
2023/10/07 06:56:21;;;;;;;0.05;0.05;;;17.40;99.90;;;;;;4996451;28;20498;-64
2023/10/07 06:58:54;;;;;;;0.00;0.00;;;17.40;99.90;;;;;;4997837;28;20046;-65
2023/10/07 07:04:14;;;;;;;0.38;0.38;;;17.40;99.90;;;;;;4999006;28;20188;-64
2023/10/07 07:06:44;;;;;;;9.38;1.90;;;17.50;99.90;;;;;;5005660;28;20478;-65
2023/10/07 07:09:41;;;;;;;2.22;0.95;;;17.40;99.90;;;;;;4998126;28;20037;-65
2023/10/07 07:11:58;;;;;;;3.53;1.50;;;17.40;99.90;;;;;;4993011;28;20115;-65
2023/10/07 07:14:28;;;;;;;0.63;0.40;;;17.50;99.90;;;;;;4995952;28;20058;-65
2023/10/07 07:16:56;;;;;;;2.35;0.43;;;17.50;99.90;;;;;;5004505;28;20485;-65
2023/10/07 07:19:23;;;;;;;0.47;0.47;;;17.50;99.90;;;;;;5007918;28;20052;-64
2023/10/07 07:21:49;;;;;;;0.20;0.20;;;17.50;99.90;;;;;;4998374;28;20058;-65
2023/10/07 07:24:21;;;;;;;0.13;0.13;;;17.50;99.90;;;;;;4997616;28;20046;-65
2023/10/07 07:26:52;;;;;;;0.00;0.00;;;17.60;99.90;;;;;;4997821;28;20042;-65
2023/10/07 07:29:24;;;;;;;0.20;0.20;;;17.60;99.90;;;;;;4998688;28;20297;-65
2023/10/07 07:31:50;;;;;;;9.23;3.65;;;17.60;99.90;;;;;;5010099;28;20061;-65
2023/10/07 07:34:26;;;;;;;0.10;0.10;;;17.60;99.90;;;;;;5004654;28;20038;-64
2023/10/07 07:37:04;;;;;;;1.42;1.33;;;17.60;99.90;;;;;;5004523;28;20477;-64
2023/10/07 07:39:30;;;;;;;0.57;0.50;;;17.60;99.90;;;;;;5008341;28;20553;-65
2023/10/07 07:42:15;;;;;;;0.40;0.30;;;17.60;99.90;;;;;;5002469;28;20038;-65
2023/10/07 07:44:55;;;;;;;0.08;0.08;;;17.60;99.90;;;;;;5008424;28;20038;-65
2023/10/07 07:47:21;;;;;;;0.52;0.52;;;17.60;99.90;;;;;;5005939;28;20398;-65
2023/10/07 07:49:48;;;;;;;0.10;0.10;;;17.60;99.90;;;;;;5003643;28;20087;-64
2023/10/07 07:52:15;;;;;;;0.10;0.10;;;17.60;99.90;;;;;;5008526;28;20046;-64
2023/10/07 07:54:44;;;;;;;0.45;0.45;;;17.70;99.90;;;;;;5012439;28;20046;-65
2023/10/07 07:57:12;;;;;;;4.25;0.22;;;17.70;99.90;;;;;;5005408;28;20042;-65
2023/10/07 07:59:38;;;;;;;0.00;0.00;;;17.60;99.90;;;;;;5005479;28;20052;-65
2023/10/07 08:04:39;;;;;;;0.30;0.30;;;17.60;99.90;;;;;;5002325;28;20057;-65
2023/10/07 08:07:18;;;;;;;0.00;0.00;;;17.70;99.90;;;;;;5005507;28;20060;-65
2023/10/07 08:09:44;;;;;;;0.57;0.57;;;17.70;99.90;;;;;;5000280;28;20406;-64
2023/10/07 08:12:10;;;;;;;0.60;0.40;;;17.60;99.90;;;;;;5003787;28;20030;-65
2023/10/07 08:14:38;;;;;;;0.17;0.17;;;17.70;99.90;;;;;;5006305;28;20045;-64
2023/10/07 08:17:08;;;;;;;0.10;0.10;;;17.70;99.90;;;;;;5000394;28;20445;-65
2023/10/07 08:19:34;;;;;;;0.98;0.65;;;17.70;99.90;;;;;;4996753;28;20053;-65
2023/10/07 08:22:02;;;;;;;2.25;2.05;;;17.70;99.90;;;;;;5005841;28;20037;-65
2023/10/07 08:24:31;;;;;;;0.35;0.35;;;17.80;99.90;;;;;;5008892;28;20498;-65
2023/10/07 08:27:03;;;;;;;0.08;0.08;;;17.80;99.90;;;;;;4998055;28;20120;-65
2023/10/07 08:29:32;;;;;;;1.23;0.88;;;17.80;99.90;;;;;;5007995;28;20414;-65
2023/10/07 08:32:16;;;;;;;0.47;0.47;;;17.80;99.90;;;;;;5004990;28;20473;-65
2023/10/07 08:34:47;;;;;;;1.02;0.93;;;17.80;99.90;;;;;;5007571;28;20037;-65
2023/10/07 08:37:15;;;;;;;0.75;0.75;;;17.80;99.90;;;;;;5003270;28;20446;-65
2023/10/07 08:39:44;;;;;;;1.45;0.43;;;17.80;99.90;;;;;;5010098;28;20053;-65
2023/10/07 08:42:17;;;;;;;1.13;0.47;;;17.80;99.90;;;;;;4999734;28;20050;-64
2023/10/07 08:44:51;;;;;;;0.08;0.08;;;17.80;99.90;;;;;;5001388;28;20049;-64
2023/10/07 08:47:21;;;;;;;2.33;0.80;;;17.80;99.90;;;;;;5002455;28;20196;-64
2023/10/07 08:49:48;;;;;;;0.10;0.10;;;17.90;99.90;;;;;;5009859;28;20452;-65
2023/10/07 08:52:16;;;;;;;3.40;0.73;;;17.90;99.90;;;;;;5000125;28;20786;-65
2023/10/07 08:54:44;;;;;;;0.73;0.73;;;18.00;99.90;;;;;;5008320;28;20077;-65
2023/10/07 08:57:22;;;;;;;0.28;0.20;;;18.00;99.90;;;;;;4994923;28;20489;-65
2023/10/07 08:59:56;;;;;;;0.68;0.68;;;18.00;99.90;;;;;;5009035;28;20041;-65
2023/10/07 09:02:28;;;;;;;10.48;3.78;;;18.10;99.90;;;;;;4996400;28;20543;-65
2023/10/07 09:05:08;;;;;;;0.10;0.10;;;18.10;99.90;;;;;;5022087;28;20139;-65
2023/10/07 09:07:35;;;;;;;0.63;0.43;;;18.10;99.90;;;;;;4995917;28;20473;-65
2023/10/07 09:10:28;;;;;;;0.00;0.00;;;18.10;99.90;;;;;;5004804;28;20045;-65
2023/10/07 09:12:50;;;;;;;0.30;0.30;;;18.20;99.90;;;;;;4998030;28;20058;-65
2023/10/07 09:15:34;;;;;;;0.10;0.10;;;18.10;99.90;;;;;;5002014;28;20046;-65
2023/10/07 09:18:04;;;;;;;5.28;1.90;;;18.10;99.90;;;;;;5003129;28;20095;-65
2023/10/07 09:20:35;;;;;;;0.35;0.35;;;18.10;99.90;;;;;;5001284;28;20054;-65
2023/10/07 09:23:23;;;;;;;0.98;0.85;;;18.10;99.90;;;;;;5006186;28;20402;-65
2023/10/07 09:25:55;;;;;;;1.40;0.63;;;18.10;99.90;;;;;;5003716;28;20128;-65
2023/10/07 09:28:35;;;;;;;0.15;0.15;;;18.10;99.90;;;;;;4998748;28;20129;-65
2023/10/07 09:31:06;;;;;;;0.98;0.98;;;18.10;99.90;;;;;;4991331;28;20046;-65
2023/10/07 09:33:38;;;;;;;0.55;0.55;;;18.10;99.90;;;;;;4998200;28;20069;-65
2023/10/07 09:36:33;;;;;;;0.45;0.43;;;18.10;99.90;;;;;;5000376;28;20058;-65
2023/10/07 09:41:38;;;;;;;0.65;0.63;;;18.10;99.90;;;;;;5006729;28;20100;-65
2023/10/07 09:44:20;;;;;;;0.10;0.10;;;18.10;99.90;;;;;;5006754;28;20451;-64
2023/10/07 09:46:52;;;;;;;0.52;0.52;;;18.10;99.90;;;;;;5011643;28;20065;-65
2023/10/07 09:49:23;;;;;;;0.05;0.05;;;18.10;99.90;;;;;;5003151;28;20053;-64
2023/10/07 09:52:02;;;;;;;0.10;0.10;;;18.10;99.90;;;;;;5004687;28;20393;-65
2023/10/07 09:54:47;;;;;;;4.15;0.90;;;18.10;99.90;;;;;;5009624;28;20038;-64
2023/10/07 09:57:42;;;;;;;2.35;1.23;;;18.00;99.90;;;;;;4998840;28;20045;-65
2023/10/07 10:03:30;;;;;;;0.80;0.80;;;18.10;99.90;;;;;;5004975;28;20038;-65
2023/10/07 10:06:33;;;;;;;0.32;0.32;;;18.10;99.90;;;;;;4995707;28;20042;-64
2023/10/07 10:09:08;;;;;;;0.00;0.00;;;18.10;99.90;;;;;;5008430;28;20060;-65
2023/10/07 10:16:47;;;;;;;1.95;1.30;;;18.20;99.90;;;;;;5000048;28;20052;-65
2023/10/07 10:19:29;;;;;;;;;;;18.30;99.90;;;;;;5019583;28;20057;-65
2023/10/07 10:21:55;;;;;;;0.00;0.00;;;18.30;99.90;;;;;;5001613;28;19921;-65
2023/10/07 10:24:28;;;;;;;0.00;0.00;;;18.40;99.90;;;;;;5001380;28;20043;-65
2023/10/07 10:27:08;;;;;;;0.20;0.20;;;18.40;99.90;;;;;;5002120;28;20038;-65
2023/10/07 10:29:55;;;;;;;0.17;0.17;;;18.40;99.90;;;;;;5005170;28;20057;-65
2023/10/07 10:32:36;;;;;;;0.10;0.10;;;18.50;99.90;;;;;;4994579;28;20086;-65
2023/10/07 10:35:11;;;;;;;3.15;0.85;;;18.50;99.90;;;;;;5005236;28;20553;-65
2023/10/07 10:37:37;;;;;;;2.28;0.57;;;18.50;99.90;;;;;;5005970;28;20046;-65
2023/10/07 10:40:21;;;;;;;0.45;0.20;;;18.50;99.90;;;;;;5003261;28;20042;-65
2023/10/07 10:42:48;;;;;;;1.98;1.33;;;18.50;99.90;;;;;;4993702;28;20502;-65
2023/10/07 10:45:19;;;;;;;0.28;0.28;;;18.50;99.90;;;;;;5001675;28;20041;-65
2023/10/07 10:47:54;;;;;;;1.48;1.38;;;18.50;99.90;;;;;;5002022;28;20045;-64
2023/10/07 10:50:23;;;;;;;0.10;0.10;;;18.50;99.90;;;;;;5007191;28;20120;-65
2023/10/07 10:52:49;;;;;;;1.85;0.57;;;18.50;99.90;;;;;;5005071;28;20058;-64
2023/10/07 10:55:19;;;;;;;0.17;0.17;;;18.50;99.90;;;;;;4998979;28;20046;-65
2023/10/07 10:57:45;;;;;;;2.95;0.95;;;18.60;99.90;;;;;;4996487;28;20211;-65
2023/10/07 11:00:22;;;;;;;1.08;0.45;;;18.70;99.90;;;;;;5006746;28;20035;-65
2023/10/07 11:02:52;;;;;;;0.22;0.22;;;18.70;99.90;;;;;;5005220;28;20076;-65
2023/10/07 11:05:18;;;;;;;3.20;1.52;;;18.90;99.90;;;;;;5002374;28;20049;-65
2023/10/07 11:07:47;;;;;;;12.02;1.27;;;19.00;99.90;;;;;;5006172;28;20084;-65
2023/10/07 11:10:20;;;;;;;2.58;0.73;;;19.10;99.90;;;;;;5010619;28;20045;-65
2023/10/07 11:12:51;;;;;;;;;;;19.10;99.90;;;;;;5010306;28;20421;-65
2023/10/07 11:15:24;;;;;;;0.73;0.25;;;19.10;99.90;;;;;;5004268;28;20085;-65
2023/10/07 11:17:53;;;;;;;0.00;0.00;;;19.10;99.90;;;;;;5007482;28;20112;-65
2023/10/07 11:20:22;;;;;;;5.60;2.92;;;19.20;99.90;;;;;;5008128;28;20054;-65
2023/10/07 11:22:49;;;;;;;0.85;0.85;;;19.20;99.90;;;;;;5004777;28;20038;-65
2023/10/07 11:25:15;;;;;;;0.40;0.40;;;19.10;99.90;;;;;;5009435;28;20041;-65
2023/10/07 11:27:43;;;;;;;0.20;0.20;;;19.10;99.90;;;;;;5009998;28;20031;-65
2023/10/07 11:30:14;;;;;;;0.00;0.00;;;19.10;99.90;;;;;;5008529;28;20061;-65
2023/10/07 11:32:43;;;;;;;0.08;0.08;;;19.20;99.90;;;;;;5007357;28;20487;-65
2023/10/07 11:35:27;;;;;;;0.32;0.32;;;19.40;99.90;;;;;;5005613;28;20121;-65
2023/10/07 11:38:02;;;;;;;2.35;0.93;;;19.60;99.90;;;;;;5003324;28;20396;-65
2023/10/07 11:40:30;;;;;;;1.45;0.65;;;19.50;99.90;;;;;;5000237;28;20046;-65
2023/10/07 11:42:56;;;;;;;0.20;0.20;;;19.40;99.90;;;;;;5010790;28;20054;-65
2023/10/07 11:45:23;;;;;;;0.00;0.00;;;19.30;99.90;;;;;;5005633;28;20113;-65
2023/10/07 11:47:49;;;;;;;0.32;0.32;;;19.20;99.90;;;;;;5002926;28;20077;-65
2023/10/07 11:50:16;;;;;;;2.72;1.90;;;19.10;99.90;;;;;;5011153;28;20046;-65
2023/10/07 11:52:42;;;;;;;0.05;0.05;;;19.00;99.90;;;;;;5004823;28;20057;-65
2023/10/07 11:55:09;;;;;;;0.45;0.20;;;18.90;99.90;;;;;;5002226;28;20363;-65
2023/10/07 11:57:37;;;;;;;0.75;0.75;;;18.80;99.90;;;;;;5002025;28;20042;-65
2023/10/07 12:00:22;;;;;;;0.00;0.00;;;18.90;99.90;;;;;;4999988;28;20121;-65
2023/10/07 12:02:51;;;;;;;0.00;0.00;;;18.90;99.90;;;;;;4997614;28;20046;-65
2023/10/07 12:05:17;;;;;;;0.13;0.13;;;18.90;99.90;;;;;;5004902;28;20049;-64
2023/10/07 12:07:47;;;;;;;0.17;0.17;;;19.00;99.90;;;;;;5006168;28;20088;-64
2023/10/07 12:10:15;;;;;;;0.32;0.32;;;19.00;99.90;;;;;;5010495;28;20053;-65
2023/10/07 12:12:42;;;;;;;0.20;0.20;;;19.00;99.90;;;;;;5006224;28;20078;-64
2023/10/07 12:15:15;;;;;;;0.20;0.20;;;18.90;99.90;;;;;;5000787;28;20089;-65
2023/10/07 12:17:45;;;;;;;;;;;18.90;99.90;;;;;;4997027;28;20073;-64
2023/10/07 12:20:15;;;;;;;0.43;0.40;;;19.00;99.90;;;;;;5005445;28;19921;-65
2023/10/07 12:22:44;;;;;;;0.00;0.00;;;19.10;99.90;;;;;;5008887;28;20038;-65
2023/10/07 12:25:16;;;;;;;23.58;1.55;;;19.20;99.90;;;;;;5005188;28;20038;-64
2023/10/07 12:27:42;;;;;;;0.35;0.35;;;19.30;99.90;;;;;;5001609;28;20034;-64
2023/10/07 12:30:11;;;;;;;0.25;0.25;;;19.20;99.90;;;;;;5010207;28;20092;-65
2023/10/07 12:32:43;;;;;;;0.10;0.10;;;19.20;99.90;;;;;;5007012;28;20049;-65
2023/10/07 12:35:13;;;;;;;4.93;2.10;;;19.30;99.90;;;;;;4994817;28;20053;-65
2023/10/07 12:37:41;;;;;;;0.32;0.32;;;19.30;99.90;;;;;;5005600;28;20838;-65
2023/10/07 12:40:11;;;;;;;0.00;0.00;;;19.20;99.90;;;;;;5011463;28;20050;-65
2023/10/07 12:42:40;;;;;;;0.47;0.45;;;19.10;99.90;;;;;;5008842;28;20048;-64
2023/10/07 12:45:09;;;;;;;0.47;0.47;;;19.00;99.90;;;;;;5001691;28;20448;-65
2023/10/07 12:47:34;;;;;;;0.15;0.15;;;18.90;99.90;;;;;;4996206;28;20511;-64
2023/10/07 12:50:20;;;;;;;0.20;0.20;;;18.90;99.90;;;;;;5004944;28;20042;-64
2023/10/07 12:52:47;;;;;;;0.00;0.00;;;18.80;99.90;;;;;;4995805;28;20042;-65
2023/10/07 12:55:13;;;;;;;1.35;1.25;;;18.70;99.90;;;;;;5006823;28;20602;-64
2023/10/07 12:57:41;;;;;;;0.20;0.20;;;18.70;99.90;;;;;;5009964;28;20045;-65
2023/10/07 13:00:19;;;;;;;0.57;0.28;;;18.70;99.90;;;;;;4996575;28;20042;-65
2023/10/07 13:02:50;;;;;;;0.30;0.30;;;18.60;99.90;;;;;;5006510;28;20053;-64
2023/10/07 13:05:20;;;;;;;0.85;0.85;;;18.60;99.90;;;;;;4998973;28;20038;-65
2023/10/07 13:07:53;;;;;;;0.55;0.55;;;18.60;99.90;;;;;;5005966;28;20056;-65
2023/10/07 13:10:19;;;;;;;5.10;4.00;;;18.50;99.90;;;;;;5008901;28;20042;-65
2023/10/07 13:12:46;;;;;;;2.72;1.45;;;18.50;99.90;;;;;;4998627;28;20038;-65
2023/10/07 13:15:15;;;;;;;0.13;0.13;;;18.50;99.90;;;;;;4996963;28;20509;-65
2023/10/07 13:17:48;;;;;;;0.00;0.00;;;18.50;99.90;;;;;;4998881;28;20053;-65
2023/10/07 13:20:20;;;;;;;0.00;0.00;;;18.40;99.90;;;;;;5006239;28;20433;-64
2023/10/07 13:22:53;;;;;;;0.13;0.13;;;18.40;99.90;;;;;;5004843;28;20050;-64
2023/10/07 13:25:19;;;;;;;;;;;18.30;99.90;;;;;;5009320;28;20034;-65
2023/10/07 13:27:49;;;;;;;0.70;0.70;;;18.40;99.90;;;;;;4996054;28;19925;-65
2023/10/07 13:30:17;;;;;;;0.32;0.32;;;18.30;99.90;;;;;;5002308;28;20064;-65
2023/10/07 13:32:46;;;;;;;3.53;0.98;;;18.30;99.90;;;;;;5007527;28;20054;-65
2023/10/07 13:35:16;;;;;;;6.25;1.58;;;18.30;99.90;;;;;;5011237;28;20045;-65
2023/10/07 13:37:46;;;;;;;0.00;0.00;;;18.30;99.90;;;;;;4996619;28;20050;-65
2023/10/07 13:40:16;;;;;;;1.05;0.77;;;18.30;99.90;;;;;;5006133;28;20046;-64
2023/10/07 13:42:49;;;;;;;0.10;0.10;;;18.30;99.90;;;;;;5002726;28;20045;-64
2023/10/07 13:45:23;;;;;;;0.43;0.43;;;18.20;99.90;;;;;;5005225;28;20033;-65
2023/10/07 13:47:49;;;;;;;3.38;0.73;;;18.20;99.90;;;;;;5010302;28;20050;-64
2023/10/07 13:50:20;;;;;;;0.03;0.03;;;18.20;99.90;;;;;;5005607;28;20100;-65
2023/10/07 13:52:50;;;;;;;0.47;0.47;;;18.10;99.90;;;;;;5001578;28;20050;-64
2023/10/07 13:58:14;;;;;;;0.20;0.20;;;18.20;99.90;;;;;;5001608;28;20046;-64